createdAt,value
2023-03-02T00:00:31.646Z,80.52
2023-03-02T00:01:31.738Z,81.84
2023-03-02T00:02:31.867Z,82.51
2023-03-02T00:03:31.897Z,83.09
2023-03-02T00:04:31.973Z,81.23
2023-03-02T00:05:32.044Z,81.99
2023-03-02T00:06:32.385Z,85.87
2023-03-02T00:07:32.194Z,84.07
2023-03-02T00:08:32.260Z,82.72
2023-03-02T00:09:32.344Z,83.73
2023-03-02T00:10:32.435Z,81.27
2023-03-02T00:11:32.504Z,82.74
2023-03-02T00:12:32.575Z,82.82
2023-03-02T00:13:32.648Z,84.91
2023-03-02T00:14:32.746Z,80.80
2023-03-02T00:15:32.852Z,81.14
2023-03-02T00:16:33.269Z,84.18
2023-03-02T00:17:32.975Z,85.30
2023-03-02T00:18:33.054Z,82.24
2023-03-02T00:19:33.125Z,80.20
2023-03-02T00:20:33.268Z,83.22
2023-03-02T00:21:33.295Z,82.75
2023-03-02T00:22:33.358Z,81.78
2023-03-02T00:23:33.447Z,82.11
2023-03-02T00:24:33.539Z,82.85
2023-03-02T00:25:33.621Z,82.03
2023-03-02T00:26:34.072Z,80.09
2023-03-02T00:27:33.766Z,85.90
2023-03-02T00:28:33.838Z,78.94
2023-03-02T00:29:33.920Z,80.55
2023-03-02T00:30:34.008Z,83.26
2023-03-02T00:31:34.158Z,82.71
2023-03-02T00:32:34.424Z,82.46
2023-03-02T00:33:34.227Z,81.39
2023-03-02T00:34:34.314Z,81.80
2023-03-02T00:35:34.408Z,79.92
2023-03-02T00:36:34.452Z,82.01
2023-03-02T00:37:34.524Z,83.73
2023-03-02T00:38:34.631Z,82.73
2023-03-02T00:39:34.689Z,81.15
2023-03-02T00:40:34.773Z,81.17
2023-03-02T00:41:34.849Z,81.82
2023-03-02T00:42:34.919Z,79.75
2023-03-02T00:43:34.997Z,83.56
2023-03-02T00:44:35.074Z,81.73
2023-03-02T00:45:35.159Z,81.25
2023-03-02T00:46:35.631Z,82.73
2023-03-02T00:47:35.304Z,81.79
2023-03-02T00:48:35.382Z,81.45
2023-03-02T00:49:35.464Z,81.57
2023-03-02T00:50:35.548Z,80.13
2023-03-02T00:51:35.631Z,81.39
2023-03-02T00:52:35.698Z,80.19
2023-03-02T00:53:35.777Z,79.85
2023-03-02T00:54:35.857Z,79.53
2023-03-02T00:55:35.942Z,80.74
2023-03-02T00:56:36.031Z,83.46
2023-03-02T00:57:36.112Z,79.91
2023-03-02T00:58:36.191Z,81.04
2023-03-02T00:59:36.272Z,81.60
2023-03-02T01:00:36.351Z,80.78
2023-03-02T01:01:36.429Z,80.06
2023-03-02T01:02:36.579Z,79.94
2023-03-02T01:03:36.617Z,78.19
2023-03-02T01:04:36.669Z,79.74
2023-03-02T01:05:36.759Z,81.41
2023-03-02T01:06:36.824Z,79.47
2023-03-02T01:07:36.907Z,80.94
2023-03-02T01:08:36.985Z,78.87
2023-03-02T01:09:37.068Z,77.20
2023-03-02T01:10:37.152Z,81.82
2023-03-02T01:11:37.218Z,78.82
2023-03-02T01:12:37.292Z,78.74
2023-03-02T01:13:37.371Z,80.34
2023-03-02T01:14:37.446Z,78.05
2023-03-02T01:15:37.535Z,80.22
2023-03-02T01:16:37.662Z,80.23
2023-03-02T01:17:37.697Z,78.31
2023-03-02T01:18:37.778Z,78.94
2023-03-02T01:19:37.844Z,78.62
2023-03-02T01:20:37.903Z,78.83
2023-03-02T01:21:37.968Z,78.52
2023-03-02T01:22:38.041Z,77.87
2023-03-02T01:23:38.105Z,79.65
2023-03-02T01:24:38.187Z,80.22
2023-03-02T01:25:38.253Z,79.43
2023-03-02T01:26:38.331Z,80.43
2023-03-02T01:27:38.398Z,78.39
2023-03-02T01:28:38.466Z,77.13
2023-03-02T01:29:38.541Z,78.88
2023-03-02T01:30:38.614Z,78.61
2023-03-02T01:31:38.753Z,80.97
2023-03-02T01:32:38.811Z,81.85
2023-03-02T01:33:38.836Z,81.51
2023-03-02T01:34:38.902Z,79.17
2023-03-02T01:35:38.982Z,80.22
2023-03-02T01:36:39.043Z,78.67
2023-03-02T01:37:39.122Z,80.72
2023-03-02T01:38:39.245Z,79.53
2023-03-02T01:39:39.271Z,79.28
2023-03-02T01:40:39.336Z,76.89
2023-03-02T01:41:39.401Z,77.35
2023-03-02T03:34:47.761Z,74.21
2023-03-02T03:35:47.909Z,72.08
2023-03-02T03:36:47.916Z,69.75
2023-03-02T03:37:47.977Z,71.08
2023-03-02T03:38:48.043Z,72.57
2023-03-02T03:39:48.145Z,70.88
2023-03-02T03:40:48.205Z,71.48
2023-03-02T03:41:48.274Z,69.94
2023-03-02T03:42:48.343Z,70.29
2023-03-02T03:43:48.416Z,70.76
2023-03-02T03:44:48.494Z,69.85
2023-03-02T03:45:48.595Z,72.49
2023-03-02T03:46:48.642Z,69.90
2023-03-02T03:47:48.722Z,72.05
2023-03-02T03:48:48.782Z,72.05
2023-03-02T03:49:48.857Z,72.68
2023-03-02T03:50:48.938Z,69.04
2023-03-02T03:51:49.010Z,73.09
2023-03-02T03:52:49.093Z,71.52
2023-03-02T03:53:49.174Z,70.31
2023-03-02T03:54:49.229Z,72.59
2023-03-02T03:55:49.303Z,70.74
2023-03-02T03:56:49.382Z,69.65
2023-03-02T03:57:49.464Z,70.09
2023-03-02T03:58:49.630Z,67.65
2023-03-02T03:59:49.605Z,70.37
2023-03-02T04:00:49.682Z,70.37
2023-03-02T04:01:49.818Z,70.87
2023-03-02T04:02:49.866Z,70.93
2023-03-02T04:03:49.894Z,68.54
2023-03-02T04:04:49.963Z,67.91
2023-03-02T04:05:50.036Z,68.00
2023-03-02T04:06:50.101Z,68.93
2023-03-02T04:07:50.181Z,70.75
2023-03-02T04:08:50.258Z,70.69
2023-03-02T04:09:50.317Z,71.01
2023-03-02T06:03:57.732Z,64.11
2023-03-02T06:04:57.782Z,61.50
2023-03-02T06:05:57.845Z,62.80
2023-03-02T06:06:57.928Z,62.95
2023-03-02T06:07:57.982Z,62.74
2023-03-02T06:08:58.013Z,60.86
2023-03-02T06:09:58.079Z,60.75
2023-03-02T06:10:58.142Z,61.18
2023-03-02T06:11:58.270Z,61.36
2023-03-02T06:12:58.241Z,61.20
2023-03-02T06:13:58.283Z,60.20
2023-03-02T06:14:58.328Z,62.44
2023-03-02T06:15:58.386Z,61.64
2023-03-02T06:16:58.507Z,62.53
2023-03-02T06:17:58.502Z,62.36
2023-03-02T06:18:58.560Z,61.18
2023-03-02T06:19:58.630Z,62.16
2023-03-02T06:20:58.734Z,61.56
2023-03-02T06:21:58.730Z,61.86
2023-03-02T06:22:58.780Z,65.10
2023-03-02T06:23:58.850Z,65.08
2023-03-02T06:24:58.942Z,67.56
2023-03-02T06:25:59.021Z,70.76
2023-03-02T06:26:59.048Z,73.44
2023-03-02T06:27:59.105Z,74.09
2023-03-02T06:28:59.170Z,75.29
2023-03-02T06:29:59.243Z,80.67
2023-03-02T06:30:59.336Z,84.72
2023-03-02T06:31:59.489Z,82.73
2023-03-02T06:32:59.480Z,86.43
2023-03-02T06:33:59.580Z,89.04
2023-03-02T06:34:59.744Z,95.56
2023-03-02T06:35:59.877Z,95.30
2023-03-02T06:36:59.890Z,94.17
2023-03-02T06:37:59.929Z,96.25
2023-03-02T06:39:00.018Z,99.03
2023-03-02T06:40:00.112Z,96.06
2023-03-02T06:41:00.201Z,98.97
2023-03-02T06:42:00.255Z,98.90
2023-03-02T06:43:01.682Z,101.07
2023-03-02T06:44:00.365Z,100.10
2023-03-02T06:45:00.447Z,105.93
2023-03-02T06:46:00.628Z,105.54
2023-03-02T06:47:00.587Z,104.48
2023-03-02T06:48:00.664Z,104.37
2023-03-02T06:49:00.737Z,102.00
2023-03-02T06:50:00.827Z,109.32
2023-03-02T06:51:00.896Z,102.28
2023-03-02T06:52:01.009Z,104.40
2023-03-02T06:53:01.067Z,106.96
2023-03-02T06:54:01.150Z,101.12
2023-03-02T06:55:01.266Z,106.17
2023-03-02T06:56:01.355Z,102.60
2023-03-02T06:57:01.444Z,105.83
2023-03-02T06:58:01.532Z,103.94
2023-03-02T06:59:01.603Z,106.29
2023-03-02T07:00:01.690Z,110.37
2023-03-02T07:01:01.781Z,111.78
2023-03-02T07:02:01.838Z,103.66
2023-03-02T07:03:01.883Z,110.44
2023-03-02T07:04:01.999Z,108.55
2023-03-02T08:22:07.723Z,247.12
2023-03-02T08:23:07.789Z,218.13
2023-03-02T08:24:07.850Z,172.07
2023-03-02T08:25:07.896Z,158.20
2023-03-02T08:26:08.003Z,146.90
2023-03-02T08:27:08.119Z,140.73
2023-03-02T08:28:08.200Z,139.36
2023-03-02T08:29:08.310Z,138.09
2023-03-02T08:30:08.422Z,145.12
2023-03-02T08:31:08.526Z,153.96
2023-03-02T08:32:08.718Z,166.29
2023-03-02T08:33:10.528Z,172.12
2023-03-02T08:34:08.733Z,175.81
2023-03-02T08:35:08.814Z,179.77
2023-03-02T08:36:08.945Z,184.50
2023-03-02T08:37:08.894Z,189.31
2023-03-02T08:38:08.941Z,192.34
2023-03-02T08:39:08.992Z,194.99
2023-03-02T08:40:09.034Z,199.34
2023-03-02T08:41:09.090Z,199.44
2023-03-02T08:42:09.122Z,203.59
2023-03-02T08:43:09.169Z,205.36
2023-03-02T08:44:09.206Z,208.20
2023-03-02T08:45:09.268Z,211.64
2023-03-02T08:46:09.332Z,214.40
2023-03-02T08:47:09.371Z,218.71
2023-03-02T08:48:09.429Z,212.21
2023-03-02T08:49:09.480Z,185.73
2023-03-02T08:50:09.547Z,154.44
2023-03-02T08:51:09.589Z,141.68
2023-03-02T08:52:09.641Z,128.94
2023-03-02T08:53:09.723Z,122.04
2023-03-02T08:54:09.798Z,133.10
2023-03-02T08:55:09.975Z,139.99
2023-03-02T08:56:10.534Z,139.98
2023-03-02T08:57:10.003Z,147.34
2023-03-02T08:58:10.086Z,153.98
2023-03-02T08:59:10.092Z,156.74
2023-03-02T09:00:11.127Z,156.96
2023-03-02T09:01:10.204Z,157.54
2023-03-02T09:02:10.178Z,159.25
2023-03-02T09:03:10.203Z,162.58
2023-03-02T09:04:10.293Z,169.93
2023-03-02T09:05:10.286Z,172.74
2023-03-02T09:06:11.045Z,172.84
2023-03-02T09:07:10.315Z,175.58
2023-03-02T09:08:11.115Z,180.13
2023-03-02T09:09:10.383Z,180.43
2023-03-02T09:10:10.421Z,185.69
2023-03-02T09:11:10.437Z,184.93
2023-03-02T09:12:10.462Z,186.32
2023-03-02T09:13:10.501Z,191.41
2023-03-02T09:14:10.533Z,191.90
2023-03-02T09:15:10.550Z,195.78
2023-03-02T09:16:10.646Z,193.55
2023-03-02T09:17:10.664Z,196.38
2023-03-02T09:18:10.750Z,198.82
2023-03-02T09:19:10.829Z,202.87
2023-03-02T09:20:10.921Z,204.21
2023-03-02T09:21:11.002Z,206.73
2023-03-02T09:22:11.072Z,208.39
2023-03-02T09:23:11.148Z,214.44
2023-03-02T09:24:11.257Z,215.86
2023-03-02T09:25:11.345Z,217.34
2023-03-02T09:26:11.436Z,216.20
2023-03-02T09:27:11.520Z,216.15
2023-03-02T09:28:11.624Z,217.84
2023-03-02T09:29:11.718Z,218.18
2023-03-02T09:30:11.824Z,218.82
2023-03-02T09:31:11.916Z,216.51
2023-03-02T09:32:12.108Z,217.52
2023-03-02T09:33:12.135Z,216.64
2023-03-02T09:34:12.182Z,216.45
2023-03-02T09:35:12.282Z,216.49
2023-03-02T09:36:12.325Z,214.08
2023-03-02T09:37:12.385Z,216.17
2023-03-02T09:38:12.471Z,214.76
2023-03-02T09:39:12.623Z,214.29
2023-03-02T09:40:12.599Z,214.35
2023-03-02T09:41:12.679Z,211.81
2023-03-02T09:42:12.767Z,211.47
2023-03-02T09:43:12.834Z,212.45
2023-03-02T09:44:12.904Z,213.21
2023-03-02T09:45:12.967Z,210.41
2023-03-02T09:46:13.079Z,212.78
2023-03-02T09:47:13.099Z,209.68
2023-03-02T09:48:13.169Z,209.85
2023-03-02T09:49:13.236Z,209.41
2023-03-02T09:50:13.294Z,208.61
2023-03-02T09:51:13.362Z,206.35
2023-03-02T09:52:13.414Z,207.61
2023-03-02T09:53:13.471Z,206.78
2023-03-02T09:54:13.601Z,207.28
2023-03-02T09:55:13.639Z,206.13
2023-03-02T09:56:13.696Z,207.66
2023-03-02T09:57:13.766Z,207.75
2023-03-02T09:58:14.604Z,203.98
2023-03-02T09:59:13.917Z,204.79
2023-03-02T10:00:19.664Z,205.29
2023-03-02T10:01:16.695Z,205.35
2023-03-02T10:02:14.023Z,205.59
2023-03-02T10:03:17.474Z,204.36
2023-03-02T10:04:14.265Z,205.49
2023-03-02T10:05:14.114Z,205.32
2023-03-02T10:06:14.158Z,203.18
2023-03-02T10:07:14.185Z,203.63
2023-03-02T10:08:14.221Z,201.63
2023-03-02T10:09:14.236Z,200.38
2023-03-02T10:10:15.148Z,199.40
2023-03-02T10:11:14.312Z,199.59
2023-03-02T10:12:14.344Z,199.02
2023-03-02T10:13:14.373Z,197.78
2023-03-02T10:14:14.388Z,197.57
2023-03-02T10:15:14.431Z,198.27
2023-03-02T10:16:14.510Z,198.32
2023-03-02T10:17:15.139Z,196.46
2023-03-02T10:18:14.535Z,195.50
2023-03-02T10:19:14.539Z,195.31
2023-03-02T10:20:14.569Z,195.85
2023-03-02T10:21:14.598Z,196.19
2023-03-02T10:22:15.137Z,193.82
2023-03-02T10:23:14.659Z,194.45
2023-03-02T10:24:14.712Z,193.94
2023-03-02T10:25:14.794Z,192.65
2023-03-02T10:26:14.752Z,192.89
2023-03-02T10:27:14.800Z,191.90
2023-03-02T10:28:14.803Z,189.21
2023-03-02T10:29:14.830Z,190.72
2023-03-02T10:30:14.864Z,189.85
2023-03-02T10:31:15.014Z,190.58
2023-03-02T10:32:14.974Z,190.50
2023-03-02T10:33:14.969Z,187.10
2023-03-02T10:34:15.002Z,188.50
2023-03-02T10:35:15.048Z,187.59
2023-03-02T10:36:15.068Z,185.80
2023-03-02T10:37:15.127Z,186.93
2023-03-02T10:38:15.145Z,185.76
2023-03-02T11:10:18.154Z,12.26
2023-03-02T11:13:17.799Z,26.08
2023-03-02T11:14:17.934Z,28.64
2023-03-02T11:15:18.034Z,25.54
2023-03-02T11:16:18.218Z,26.96
2023-03-02T11:17:18.228Z,30.97
2023-03-02T11:18:18.349Z,36.75
2023-03-02T11:19:18.400Z,43.76
2023-03-02T11:20:18.468Z,50.33
2023-03-02T11:21:18.521Z,60.00
2023-03-02T11:22:18.645Z,65.11
2023-03-02T11:23:18.776Z,75.85
2023-03-02T11:24:18.851Z,87.17
2023-03-02T11:25:18.966Z,94.98
2023-03-02T11:26:19.036Z,97.93
2023-03-02T11:27:19.102Z,104.58
2023-03-02T11:28:19.154Z,106.87
2023-03-02T11:29:21.604Z,111.84
2023-03-02T11:30:19.255Z,115.15
2023-03-02T11:31:19.382Z,120.33
2023-03-02T11:32:19.403Z,124.15
2023-03-02T11:33:19.397Z,124.96
2023-03-02T11:34:19.434Z,130.18
2023-03-02T11:35:21.586Z,133.94
2023-03-02T11:36:19.489Z,134.12
2023-03-02T11:37:19.519Z,134.88
2023-03-02T11:38:19.568Z,137.76
2023-03-02T11:39:19.610Z,142.23
2023-03-02T11:40:19.655Z,151.54
2023-03-02T11:41:19.679Z,153.54
2023-03-02T11:42:19.809Z,156.29
2023-03-02T11:43:19.746Z,161.75
2023-03-02T11:44:19.768Z,164.62
2023-03-02T11:45:19.809Z,167.60
2023-03-02T11:46:22.217Z,169.68
2023-03-02T11:47:19.927Z,169.87
2023-03-02T11:48:19.888Z,170.83
2023-03-02T11:49:19.918Z,173.00
2023-03-02T11:50:19.945Z,176.88
2023-03-02T11:51:19.977Z,182.94
2023-03-02T11:52:20.011Z,185.28
2023-03-02T11:53:20.070Z,186.12
2023-03-02T11:54:20.064Z,187.95
2023-03-02T11:55:20.091Z,189.69
2023-03-02T11:56:20.133Z,190.20
2023-03-02T11:57:20.151Z,191.21
2023-03-02T11:58:20.187Z,193.26
2023-03-02T11:59:21.140Z,195.24
2023-03-02T12:00:20.231Z,194.73
2023-03-02T12:01:20.260Z,195.24
2023-03-02T12:02:20.337Z,197.56
2023-03-02T12:03:20.313Z,197.93
2023-03-02T12:04:20.321Z,196.73
2023-03-02T12:05:20.380Z,198.75
2023-03-02T12:06:20.359Z,199.30
2023-03-02T12:07:20.400Z,200.59
2023-03-02T12:08:20.403Z,201.81
2023-03-02T12:09:20.511Z,203.00
2023-03-02T12:10:20.458Z,203.27
2023-03-02T12:11:20.478Z,204.35
2023-03-02T12:12:20.506Z,204.57
2023-03-02T12:13:20.528Z,204.40
2023-03-02T12:14:20.557Z,204.86
2023-03-02T12:15:20.583Z,204.56
2023-03-02T12:16:20.699Z,205.49
2023-03-02T12:17:20.647Z,206.21
2023-03-02T12:18:20.691Z,205.50
2023-03-02T12:19:20.696Z,205.75
2023-03-02T12:34:21.193Z,207.69
2023-03-02T12:43:21.528Z,206.22
2023-03-02T12:44:21.532Z,206.53
2023-03-02T12:45:21.573Z,206.13
2023-03-02T12:46:21.640Z,206.19
2023-03-02T12:47:22.456Z,206.14
2023-03-02T12:48:21.897Z,206.88
2023-03-02T12:49:21.740Z,206.59
2023-03-02T12:50:21.770Z,205.53
2023-03-02T12:51:21.962Z,206.26
2023-03-02T12:52:23.925Z,206.12
2023-03-02T12:53:21.914Z,206.52
2023-03-02T12:54:21.951Z,206.55
2023-03-02T12:55:21.987Z,206.35
2023-03-02T12:56:22.035Z,205.92
2023-03-02T12:57:22.090Z,206.09
2023-03-02T12:58:22.123Z,206.11
2023-03-02T12:59:22.167Z,205.06
2023-03-02T13:00:22.209Z,205.94
2023-03-02T13:01:22.336Z,206.05
2023-03-02T13:02:22.303Z,207.17
2023-03-02T13:03:22.330Z,208.07
2023-03-02T13:04:22.421Z,206.29
2023-03-02T13:05:23.125Z,208.81
2023-03-02T13:06:22.473Z,210.45
2023-03-02T13:07:22.507Z,212.89
2023-03-02T13:08:23.191Z,213.74
2023-03-02T13:09:22.584Z,217.39
2023-03-02T13:10:22.656Z,219.30
2023-03-02T13:11:22.672Z,220.27
2023-03-02T13:12:22.737Z,220.74
2023-03-02T13:13:22.897Z,222.74
2023-03-02T13:14:22.829Z,223.86
2023-03-02T13:15:22.874Z,225.04
2023-03-02T13:16:23.038Z,226.97
2023-03-02T13:17:23.030Z,229.21
2023-03-02T13:18:23.090Z,229.68
2023-03-02T13:19:24.134Z,231.86
2023-03-02T13:20:23.239Z,233.42
2023-03-02T13:21:23.329Z,233.80
2023-03-02T13:22:23.503Z,235.13
2023-03-02T13:23:23.494Z,237.46
2023-03-02T13:24:23.572Z,239.06
2023-03-02T13:25:23.643Z,240.26
2023-03-02T14:13:27.727Z,241.42
2023-03-02T14:14:27.806Z,241.47
2023-03-02T14:15:27.927Z,241.94
2023-03-02T14:16:27.985Z,242.06
2023-03-02T14:17:28.074Z,243.00
2023-03-02T14:18:28.143Z,243.30
2023-03-02T14:19:28.230Z,243.61
2023-03-02T14:20:28.319Z,245.42
2023-03-02T14:21:28.457Z,245.86
2023-03-02T14:22:28.486Z,246.70
2023-03-02T14:23:28.633Z,248.21
2023-03-02T14:25:28.728Z,249.20
2023-03-02T16:47:37.716Z,226.12
2023-03-02T16:48:37.775Z,226.72
2023-03-02T16:49:37.836Z,226.77
2023-03-02T16:50:37.894Z,225.73
2023-03-02T16:55:38.221Z,225.50
2023-03-02T16:58:38.430Z,225.27
2023-03-02T16:59:38.496Z,225.52
2023-03-02T17:00:38.588Z,224.63
2023-03-02T17:01:38.656Z,224.77
2023-03-02T17:02:38.698Z,225.36
2023-03-02T17:03:38.765Z,225.16
2023-03-02T17:04:38.895Z,224.11
2023-03-02T17:05:38.904Z,224.19
2023-03-02T17:06:41.636Z,224.19
2023-03-02T17:08:39.043Z,223.95
2023-03-02T17:09:39.105Z,222.67
2023-03-02T17:10:39.117Z,223.33
2023-03-02T17:14:39.278Z,223.54
2023-03-02T17:22:39.582Z,222.04
2023-03-02T17:23:39.616Z,221.87
2023-03-02T17:24:39.663Z,221.87
2023-03-02T17:25:39.691Z,221.41
2023-03-02T17:26:39.729Z,221.24
2023-03-02T17:27:39.776Z,219.66
2023-03-02T17:28:39.800Z,221.58
2023-03-02T17:29:39.841Z,220.81
2023-03-02T17:30:39.889Z,220.41
2023-03-02T17:31:39.927Z,221.03
2023-03-02T17:32:39.955Z,221.08
2023-03-02T17:33:39.991Z,219.63
2023-03-02T17:34:40.035Z,219.99
2023-03-02T17:35:40.076Z,219.89
2023-03-02T17:36:40.119Z,220.06
2023-03-02T17:37:40.151Z,220.06
2023-03-02T17:38:40.207Z,220.23
2023-03-02T17:39:40.248Z,219.79
2023-03-02T17:40:40.290Z,219.25
2023-03-02T17:41:40.324Z,220.10
2023-03-02T17:42:40.358Z,220.16
2023-03-02T17:43:40.396Z,220.85
2023-03-02T17:44:40.450Z,219.77
2023-03-02T17:45:40.472Z,219.20
2023-03-02T17:47:40.565Z,218.84
2023-03-02T17:48:40.587Z,218.54
2023-03-02T17:49:40.632Z,219.58
2023-03-02T17:50:40.677Z,217.83
2023-03-02T17:51:40.714Z,218.10
2023-03-02T17:52:40.762Z,218.45
2023-03-02T17:53:40.792Z,218.28
2023-03-02T17:54:40.829Z,219.09
2023-03-02T17:55:40.876Z,217.94
2023-03-02T17:56:40.931Z,217.39
2023-03-02T17:57:40.936Z,217.95
2023-03-02T17:58:45.138Z,219.09
2023-03-02T17:59:41.020Z,219.12
2023-03-02T18:00:41.061Z,217.86
2023-03-02T18:01:41.100Z,217.18
2023-03-02T19:14:47.814Z,207.56
2023-03-02T19:15:47.918Z,207.65
2023-03-02T19:16:48.185Z,208.98
2023-03-02T19:17:48.112Z,208.32
2023-03-02T19:18:48.228Z,208.61
2023-03-02T19:19:48.311Z,207.88
2023-03-02T19:20:48.417Z,207.51
2023-03-02T19:21:48.538Z,208.19
2023-03-02T19:22:48.632Z,206.82
2023-03-02T19:23:48.726Z,205.79
2023-03-02T19:24:48.823Z,207.27
2023-03-02T19:25:48.921Z,206.58
2023-03-02T19:26:49.015Z,207.41
2023-03-02T19:27:49.111Z,204.73
2023-03-02T19:28:49.218Z,207.10
2023-03-02T19:29:49.352Z,205.57
2023-03-02T19:30:49.474Z,205.54
2023-03-02T19:31:49.603Z,207.12
2023-03-02T19:32:49.660Z,206.56
2023-03-02T19:33:49.731Z,203.51
2023-03-02T19:34:49.812Z,205.49
2023-03-02T19:35:49.947Z,204.81
2023-03-02T19:36:49.986Z,204.73
2023-03-02T19:37:50.111Z,204.68
2023-03-02T19:38:50.211Z,205.56
2023-03-02T19:39:50.286Z,203.64
2023-03-02T19:40:50.370Z,204.67
2023-03-02T19:41:50.472Z,204.69
2023-03-02T19:42:50.560Z,203.60
2023-03-02T19:43:50.646Z,203.99
2023-03-02T19:44:50.710Z,204.70
2023-03-02T19:45:50.848Z,204.20
2023-03-02T19:46:50.937Z,204.44
2023-03-02T19:47:51.058Z,203.75
2023-03-02T19:48:51.125Z,203.55
2023-03-02T19:49:51.213Z,203.21
2023-03-02T19:50:51.328Z,203.77
2023-03-02T19:51:51.446Z,204.00
2023-03-02T19:52:51.532Z,203.38
2023-03-02T19:53:51.641Z,203.38
2023-03-02T19:54:51.752Z,202.85
2023-03-02T19:55:51.858Z,204.11
2023-03-02T19:56:51.935Z,203.18
2023-03-02T19:57:52.004Z,201.23
2023-03-02T19:58:52.099Z,202.16
2023-03-02T19:59:52.199Z,200.71
2023-03-02T20:00:52.288Z,201.43
2023-03-02T20:01:52.384Z,201.79
2023-03-02T20:02:52.448Z,201.77
2023-03-02T20:03:52.534Z,201.65
2023-03-02T20:04:52.629Z,201.78
2023-03-02T20:05:52.742Z,201.43
2023-03-02T20:06:52.819Z,200.58
2023-03-02T20:07:52.886Z,202.18
2023-03-02T20:08:52.986Z,201.40
2023-03-02T20:09:53.014Z,200.56
2023-03-02T20:10:53.093Z,201.50
2023-03-02T20:11:53.170Z,199.25
2023-03-02T20:12:53.251Z,199.91
2023-03-02T20:13:53.308Z,200.33
2023-03-02T20:14:53.430Z,200.47
2023-03-02T20:15:53.491Z,199.49
2023-03-02T20:16:53.630Z,198.61
2023-03-02T20:17:53.667Z,201.14
2023-03-02T20:18:53.765Z,199.55
2023-03-02T20:19:53.853Z,198.91
2023-03-02T20:20:53.935Z,199.16
2023-03-02T20:21:54.010Z,199.62
2023-03-02T20:22:54.074Z,199.04
2023-03-02T20:23:54.143Z,199.18
2023-03-02T20:24:54.242Z,198.42
2023-03-02T20:25:54.361Z,197.96
2023-03-02T21:13:57.777Z,192.64
2023-03-02T21:14:57.844Z,191.64
2023-03-02T21:15:57.958Z,191.23
2023-03-02T21:16:57.996Z,191.71
2023-03-02T21:17:58.062Z,191.57
2023-03-02T21:18:58.131Z,190.41
2023-03-02T21:19:58.213Z,191.50
2023-03-02T21:20:58.230Z,190.41
2023-03-02T21:21:58.328Z,190.66
2023-03-02T21:22:58.394Z,191.03
2023-03-02T21:23:58.476Z,189.53
2023-03-02T21:24:58.585Z,191.39
2023-03-02T21:25:58.616Z,189.66
2023-03-02T21:26:58.702Z,189.47
2023-03-02T21:27:58.758Z,189.97
2023-03-02T21:28:58.840Z,190.42
2023-03-02T21:29:58.920Z,190.12
2023-03-02T21:30:59.030Z,190.33
2023-03-02T21:31:59.101Z,189.94
2023-03-02T21:32:59.140Z,189.18
2023-03-02T21:33:59.185Z,189.86
2023-03-02T21:34:59.249Z,189.94
2023-03-02T21:35:59.292Z,189.43
2023-03-02T21:36:59.342Z,189.96
2023-03-02T21:37:59.459Z,188.42
2023-03-02T21:38:59.529Z,188.86
2023-03-02T21:39:59.581Z,186.47
2023-03-02T21:40:59.658Z,188.11
2023-03-02T21:41:59.720Z,188.30
2023-03-02T21:42:59.771Z,187.35
2023-03-02T21:43:59.835Z,186.05
2023-03-02T21:44:59.908Z,187.72
2023-03-02T21:45:59.962Z,188.35
2023-03-02T21:47:00.016Z,186.37
2023-03-02T21:48:00.097Z,186.83
2023-03-02T21:49:00.138Z,186.18
2023-03-02T21:50:00.180Z,187.48
2023-03-02T21:51:00.225Z,187.67
2023-03-02T21:52:00.315Z,187.78
2023-03-02T21:53:00.388Z,187.74
2023-03-02T21:54:00.438Z,187.37
2023-03-02T21:55:00.511Z,186.86
2023-03-02T21:56:00.564Z,187.43
2023-03-02T21:57:00.595Z,186.14
2023-03-02T21:58:00.642Z,185.46
2023-03-02T21:59:00.722Z,186.45
2023-03-02T22:00:01.115Z,185.97
2023-03-02T22:01:00.829Z,185.35
2023-03-02T22:02:00.940Z,184.39
2023-03-02T22:03:00.966Z,183.89
2023-03-02T22:04:01.051Z,184.66
2023-03-02T22:05:01.240Z,185.24
2023-03-02T22:06:01.197Z,185.17
2023-03-02T22:07:01.269Z,185.84
2023-03-02T23:45:07.748Z,171.38
2023-03-02T23:46:07.843Z,170.92
2023-03-02T23:47:07.892Z,171.09
2023-03-02T23:48:07.948Z,170.27
2023-03-02T23:49:08.011Z,170.31
2023-03-02T23:50:08.075Z,173.06
2023-03-02T23:51:08.148Z,171.08
2023-03-02T23:52:08.214Z,169.74
2023-03-02T23:53:08.282Z,170.91
2023-03-02T23:54:08.365Z,170.01
2023-03-02T23:55:08.514Z,170.31
2023-03-02T23:56:08.533Z,170.21
2023-03-02T23:57:08.620Z,170.63
2023-03-02T23:58:08.700Z,169.40
2023-03-02T23:59:08.793Z,170.74
